createdAt,value
2018-01-08T00:01:13.728Z,64.89
2018-01-08T00:03:44.777Z,65.03
2018-01-08T00:06:20.121Z,64.87
2018-01-08T00:08:50.834Z,64.85
2018-01-08T00:11:21.423Z,64.77
2018-01-08T00:13:51.892Z,64.99
2018-01-08T00:16:22.892Z,65.04
2018-01-08T00:19:11.705Z,64.87
2018-01-08T00:21:43.379Z,64.69
2018-01-08T00:24:18.071Z,64.63
2018-01-08T00:26:52.490Z,64.34
2018-01-08T00:29:23.692Z,64.20
2018-01-08T00:31:54.818Z,64.18
2018-01-08T00:34:25.536Z,64.11
2018-01-08T00:36:56.031Z,64.04
2018-01-08T00:39:26.437Z,64.09
2018-01-08T00:41:57.627Z,64.07
2018-01-08T00:44:28.313Z,64.10
2018-01-08T00:46:59.333Z,64.28
2018-01-08T00:49:29.774Z,64.15
2018-01-08T00:52:00.030Z,63.99
2018-01-08T00:54:31.292Z,64.22
2018-01-08T00:57:01.813Z,64.38
2018-01-08T00:59:34.364Z,64.31
2018-01-08T01:02:09.972Z,64.30
2018-01-08T01:04:44.288Z,64.01
2018-01-08T01:07:15.853Z,63.97
2018-01-08T01:09:46.278Z,64.13
2018-01-08T01:12:17.129Z,64.41
2018-01-08T01:14:47.834Z,64.20
2018-01-08T01:17:18.632Z,64.21
2018-01-08T01:19:49.808Z,64.63
2018-01-08T01:22:20.529Z,64.63
2018-01-08T01:24:51.140Z,64.70
2018-01-08T01:27:21.572Z,64.92
2018-01-08T01:29:52.753Z,64.99
2018-01-08T01:32:23.726Z,65.18
2018-01-08T01:34:54.582Z,64.98
2018-01-08T01:37:25.177Z,65.16
2018-01-08T01:39:55.821Z,65.06
2018-01-08T01:42:26.381Z,65.04
2018-01-08T01:44:56.827Z,65.11
2018-01-08T01:47:27.434Z,65.09
2018-01-08T01:49:58.131Z,64.83
2018-01-08T01:52:28.519Z,64.98
2018-01-08T01:54:59.915Z,64.98
2018-01-08T01:57:30.580Z,64.60
2018-01-08T02:00:01.007Z,64.57
2018-01-08T02:02:31.970Z,64.66
2018-01-08T02:05:03.622Z,64.55
2018-01-08T02:07:33.910Z,64.71
2018-01-08T02:10:04.344Z,64.62
2018-01-08T02:12:35.234Z,64.62
2018-01-08T02:15:09.764Z,64.67
2018-01-08T02:17:43.937Z,64.92
2018-01-08T02:20:14.614Z,65.10
2018-01-08T02:22:45.014Z,65.35
2018-01-08T02:25:15.779Z,65.19
2018-01-08T02:27:46.076Z,65.54
2018-01-08T02:30:16.889Z,65.73
2018-01-08T02:32:47.684Z,65.74
2018-01-08T02:35:19.141Z,65.94
2018-01-08T02:37:49.988Z,66.04
2018-01-08T02:40:24.842Z,66.11
2018-01-08T02:42:55.984Z,66.06
2018-01-08T02:45:26.873Z,66.13
2018-01-08T02:47:57.254Z,66.00
2018-01-08T02:50:28.171Z,65.99
2018-01-08T02:52:59.452Z,66.09
2018-01-08T02:55:29.746Z,65.96
2018-01-08T02:58:00.116Z,65.98
2018-01-08T03:00:31.331Z,65.78
2018-01-08T03:03:01.673Z,65.74
2018-01-08T03:05:32.224Z,65.42
2018-01-08T03:08:02.651Z,65.64
2018-01-08T03:10:33.572Z,65.61
2018-01-08T03:13:04.547Z,65.57
2018-01-08T03:15:35.780Z,65.51
2018-01-08T03:18:06.065Z,65.29
2018-01-08T03:20:38.944Z,65.32
2018-01-08T03:23:09.254Z,65.20
2018-01-08T03:25:39.564Z,65.32
2018-01-08T03:28:11.622Z,65.45
2018-01-08T03:30:42.365Z,65.46
2018-01-08T03:33:13.013Z,65.42
2018-01-08T03:35:50.073Z,65.54
2018-01-08T03:38:22.969Z,65.25
2018-01-08T03:40:53.801Z,65.33
2018-01-08T03:43:24.434Z,65.58
2018-01-08T03:45:55.995Z,65.42
2018-01-08T03:48:26.952Z,65.38
2018-01-08T03:50:57.287Z,65.78
2018-01-08T03:53:28.218Z,65.60
2018-01-08T03:55:59.022Z,65.52
2018-01-08T03:58:30.282Z,65.26
2018-01-08T04:01:01.540Z,65.43
2018-01-08T04:03:32.618Z,65.35
2018-01-08T04:06:03.847Z,64.98
2018-01-08T04:08:34.566Z,65.07
2018-01-08T04:11:04.832Z,64.83
2018-01-08T04:13:36.306Z,64.93
2018-01-08T04:16:08.831Z,64.84
2018-01-08T04:18:40.245Z,64.79
2018-01-08T04:21:15.809Z,64.64
2018-01-08T04:23:46.164Z,64.31
2018-01-08T04:26:16.998Z,64.34
2018-01-08T04:28:47.735Z,64.46
2018-01-08T04:31:18.319Z,64.25
2018-01-08T04:33:48.770Z,64.20
2018-01-08T04:36:19.343Z,64.29
2018-01-08T04:38:50.002Z,64.08
2018-01-08T04:41:20.547Z,64.11
2018-01-08T04:43:51.330Z,64.28
2018-01-08T04:46:21.940Z,64.22
2018-01-08T04:48:52.305Z,64.17
2018-01-08T04:51:22.905Z,63.76
2018-01-08T04:53:53.837Z,63.90
2018-01-08T04:56:25.950Z,63.66
2018-01-08T04:58:57.046Z,63.81
2018-01-08T05:01:29.900Z,63.95
2018-01-08T05:04:00.433Z,63.63
2018-01-08T05:06:32.727Z,63.73
2018-01-08T05:09:03.144Z,63.93
2018-01-08T05:11:34.522Z,64.14
2018-01-08T05:14:05.401Z,64.36
2018-01-08T05:16:36.831Z,64.81
2018-01-08T05:19:09.429Z,64.79
2018-01-08T05:21:41.212Z,64.52
2018-01-08T05:24:22.407Z,64.49
2018-01-08T05:26:53.897Z,64.33
2018-01-08T05:29:24.645Z,64.54
2018-01-08T05:31:55.577Z,64.75
2018-01-08T05:34:26.020Z,64.43
2018-01-08T05:36:56.519Z,64.22
2018-01-08T05:39:26.789Z,64.09
2018-01-08T05:41:57.977Z,64.33
2018-01-08T05:44:28.581Z,64.09
2018-01-08T05:46:59.522Z,64.55
2018-01-08T05:49:30.244Z,64.22
2018-01-08T05:52:00.541Z,64.21
2018-01-08T05:54:30.948Z,63.93
2018-01-08T05:57:01.448Z,64.21
2018-01-08T05:59:40.549Z,64.04
2018-01-08T06:02:16.409Z,64.30
2018-01-08T06:04:47.260Z,64.31
2018-01-08T06:07:19.276Z,64.34
2018-01-08T06:09:50.405Z,64.38
2018-01-08T06:12:20.925Z,64.03
2018-01-08T06:14:51.208Z,64.19
2018-01-08T06:17:21.792Z,64.45
2018-01-08T06:19:52.579Z,64.66
2018-01-08T06:22:23.452Z,64.43
2018-01-08T06:24:54.157Z,64.45
2018-01-08T06:27:24.507Z,64.46
2018-01-08T06:29:54.835Z,64.35
2018-01-08T06:32:26.841Z,64.56
2018-01-08T06:34:57.693Z,64.60
2018-01-08T06:37:29.049Z,64.44
2018-01-08T06:40:00.116Z,64.63
2018-01-08T06:42:30.855Z,64.81
2018-01-08T06:45:03.101Z,64.87
2018-01-08T06:47:33.824Z,65.07
2018-01-08T06:50:04.188Z,65.12
2018-01-08T06:52:35.200Z,65.33
2018-01-08T06:55:05.616Z,65.44
2018-01-08T06:57:36.900Z,65.61
2018-01-08T07:00:18.343Z,65.81
2018-01-08T07:02:48.782Z,65.52
2018-01-08T07:05:19.166Z,65.63
2018-01-08T07:07:50.601Z,65.88
2018-01-08T07:10:21.133Z,65.63
2018-01-08T07:12:51.637Z,65.83
2018-01-08T07:15:23.767Z,65.63
2018-01-08T07:17:54.215Z,65.52
2018-01-08T07:20:25.438Z,65.20
2018-01-08T07:22:56.160Z,65.10
2018-01-08T07:25:27.342Z,64.91
2018-01-08T07:27:58.327Z,64.96
2018-01-08T07:30:29.772Z,64.74
2018-01-08T07:33:01.453Z,64.52
2018-01-08T07:35:32.305Z,64.47
2018-01-08T07:38:08.401Z,64.30
2018-01-08T07:40:40.099Z,64.30
2018-01-08T07:43:11.903Z,64.09
2018-01-08T07:45:42.371Z,63.92
2018-01-08T07:48:13.096Z,63.93
2018-01-08T07:53:21.020Z,63.75
2018-01-08T07:55:51.375Z,63.81
2018-01-08T07:58:23.077Z,63.80
2018-01-08T08:00:54.232Z,63.65
2018-01-08T08:03:24.504Z,63.54
2018-01-08T08:05:55.396Z,63.68
2018-01-08T08:08:26.080Z,63.39
2018-01-08T08:10:56.577Z,63.38
2018-01-08T08:13:27.443Z,63.38
2018-01-08T08:15:58.005Z,63.50
2018-01-08T08:18:31.487Z,63.55
2018-01-08T08:21:02.313Z,63.38
2018-01-08T08:23:32.829Z,63.52
2018-01-08T08:26:03.158Z,63.53
2018-01-08T08:28:33.989Z,63.24
2018-01-08T08:31:04.408Z,63.17
2018-01-08T08:33:34.729Z,63.34
2018-01-08T08:36:06.473Z,63.26
2018-01-08T08:38:37.029Z,63.55
2018-01-08T08:41:07.243Z,63.63
2018-01-08T08:43:38.876Z,63.42
2018-01-08T08:46:10.101Z,63.28
2018-01-08T08:48:41.051Z,63.07
2018-01-08T08:51:12.381Z,63.20
2018-01-08T08:53:42.946Z,63.18
2018-01-08T08:56:13.278Z,63.21
2018-01-08T08:58:44.176Z,63.00
2018-01-08T09:01:14.825Z,62.73
2018-01-08T09:03:45.443Z,62.82
2018-01-08T09:06:16.907Z,62.82
2018-01-08T09:08:48.961Z,62.79
2018-01-08T09:11:23.059Z,62.70
2018-01-08T09:13:53.678Z,62.91
2018-01-08T09:16:24.435Z,62.79
2018-01-08T09:18:56.247Z,62.47
2018-01-08T09:21:26.959Z,62.45
2018-01-08T09:23:57.286Z,62.20
2018-01-08T09:26:27.664Z,61.97
2018-01-08T09:28:58.101Z,61.98
2018-01-08T09:31:28.958Z,62.26
2018-01-08T09:33:59.729Z,62.58
2018-01-08T09:36:31.052Z,62.33
2018-01-08T09:39:01.278Z,62.44
2018-01-08T09:41:32.021Z,62.27
2018-01-08T09:44:02.592Z,62.36
2018-01-08T09:46:33.732Z,62.31
2018-01-08T09:49:05.244Z,62.48
2018-01-08T09:51:36.348Z,62.11
2018-01-08T09:54:07.779Z,62.12
2018-01-08T09:56:40.753Z,61.84
2018-01-08T09:59:12.698Z,62.04
2018-01-08T10:01:44.167Z,61.81
2018-01-08T10:04:25.430Z,62.08
2018-01-08T10:07:12.408Z,62.30
2018-01-08T10:09:59.620Z,61.69
2018-01-08T10:12:46.650Z,61.66
2018-01-08T10:15:34.157Z,62.03
2018-01-08T10:18:21.769Z,61.61
2018-01-08T10:20:54.398Z,61.24
2018-01-08T10:23:25.907Z,61.66
2018-01-08T10:25:56.532Z,61.60
2018-01-08T10:28:27.984Z,61.80
2018-01-08T10:31:00.945Z,61.53
2018-01-08T10:33:33.080Z,61.22
2018-01-08T10:36:03.994Z,61.37
2018-01-08T10:38:35.845Z,61.68
2018-01-08T10:41:06.159Z,61.04
2018-01-08T10:43:43.516Z,60.63
2018-01-08T10:46:19.025Z,60.89
2018-01-08T10:48:56.239Z,60.97
2018-01-08T10:51:32.427Z,61.30
2018-01-08T10:54:11.469Z,60.89
2018-01-08T10:56:42.200Z,60.76
2018-01-08T10:59:13.763Z,60.68
2018-01-08T11:01:48.778Z,60.48
2018-01-08T11:04:19.359Z,60.69
2018-01-08T11:06:49.783Z,59.84
2018-01-08T11:09:30.650Z,60.16
2018-01-08T11:12:02.149Z,59.78
2018-01-08T11:14:32.757Z,59.66
2018-01-08T11:17:04.528Z,59.03
2018-01-08T11:19:35.662Z,58.77
2018-01-08T11:22:06.160Z,58.85
2018-01-08T11:27:18.678Z,58.60
2018-01-08T11:29:50.041Z,58.45
2018-01-08T11:32:20.977Z,58.37
2018-01-08T11:34:51.631Z,58.02
2018-01-08T11:37:22.655Z,58.23
2018-01-08T11:39:53.743Z,57.97
2018-01-08T11:42:26.376Z,58.56
2018-01-08T11:44:57.101Z,58.70
2018-01-08T11:47:27.718Z,58.41
2018-01-08T11:50:02.539Z,58.75
2018-01-08T11:52:42.057Z,58.40
2018-01-08T11:55:14.460Z,58.25
2018-01-08T11:57:45.050Z,58.60
2018-01-08T12:00:18.592Z,58.09
2018-01-08T12:02:49.129Z,57.61
2018-01-08T12:05:20.318Z,57.78
2018-01-08T12:07:50.724Z,57.19
2018-01-08T12:11:01.076Z,56.83
2018-01-08T12:13:33.838Z,56.63
2018-01-08T12:16:07.842Z,55.82
2018-01-08T12:18:40.176Z,54.67
2018-01-08T12:21:17.037Z,54.12
2018-01-08T12:23:54.977Z,53.84
2018-01-08T12:28:52.965Z,53.10
2018-01-08T12:31:26.717Z,53.47
2018-01-08T12:33:58.391Z,53.52
2018-01-08T12:36:29.848Z,53.51
2018-01-08T12:39:00.790Z,53.98
2018-01-08T12:41:32.494Z,53.74
2018-01-08T12:44:10.019Z,53.70
2018-01-08T12:46:43.021Z,53.53
2018-01-08T12:49:15.541Z,53.15
2018-01-08T12:51:47.680Z,53.13
2018-01-08T12:54:20.254Z,52.38
2018-01-08T12:56:52.305Z,51.08
2018-01-08T12:59:22.987Z,50.55
2018-01-08T13:01:53.766Z,49.39
2018-01-08T13:04:24.611Z,50.08
2018-01-08T13:06:56.046Z,49.75
2018-01-08T13:09:27.524Z,48.81
2018-01-08T13:11:58.081Z,49.06
2018-01-08T13:14:28.686Z,49.05
2018-01-08T13:16:59.971Z,48.65
2018-01-08T13:19:31.302Z,49.21
2018-01-08T13:22:02.807Z,49.64
2018-01-08T13:24:35.764Z,49.62
2018-01-08T13:27:06.732Z,50.28
2018-01-08T13:29:38.381Z,49.92
2018-01-08T13:32:09.253Z,50.08
2018-01-08T13:37:29.613Z,50.64
2018-01-08T13:40:00.243Z,50.93
2018-01-08T13:42:30.834Z,51.24
2018-01-08T13:45:03.862Z,51.11
2018-01-08T13:47:34.599Z,51.41
2018-01-08T13:50:09.412Z,51.00
2018-01-08T13:52:41.239Z,51.18
2018-01-08T13:55:20.580Z,51.00
2018-01-08T13:57:53.224Z,51.23
2018-01-08T14:00:36.042Z,51.49
2018-01-08T14:03:08.898Z,50.97
2018-01-08T14:05:40.176Z,50.41
2018-01-08T14:08:11.191Z,50.96
2018-01-08T14:10:41.743Z,51.45
2018-01-08T14:13:13.479Z,51.62
2018-01-08T14:15:44.080Z,51.62
2018-01-08T14:18:14.456Z,51.64
2018-01-08T14:20:45.211Z,51.39
2018-01-08T14:23:16.218Z,51.22
2018-01-08T14:25:47.497Z,51.08
2018-01-08T14:28:18.007Z,50.80
2018-01-08T14:30:49.612Z,51.26
2018-01-08T14:33:20.673Z,51.48
2018-01-08T14:35:52.305Z,51.90
2018-01-08T14:38:23.210Z,52.35
2018-01-08T14:40:53.957Z,52.34
2018-01-08T14:43:24.431Z,52.79
2018-01-08T14:45:55.388Z,53.34
2018-01-08T14:48:26.076Z,53.63
2018-01-08T14:50:59.401Z,53.80
2018-01-08T14:53:30.112Z,54.30
2018-01-08T14:56:00.705Z,54.63
2018-01-08T14:58:32.101Z,54.99
2018-01-08T15:01:03.771Z,55.43
2018-01-08T15:03:35.429Z,55.55
2018-01-08T15:06:06.557Z,55.55
2018-01-08T15:08:38.247Z,55.64
2018-01-08T15:11:09.193Z,55.69
2018-01-08T15:13:39.761Z,56.20
2018-01-08T15:16:11.104Z,56.78
2018-01-08T15:18:43.161Z,56.99
2018-01-08T15:21:14.749Z,57.27
2018-01-08T15:23:45.798Z,57.31
2018-01-08T15:26:17.892Z,57.68
2018-01-08T15:28:49.623Z,57.98
2018-01-08T15:33:50.782Z,57.88
2018-01-08T15:36:22.025Z,57.74
2018-01-08T15:38:52.747Z,57.84
2018-01-08T15:41:23.706Z,58.09
2018-01-08T15:43:55.234Z,58.54
2018-01-08T15:46:28.313Z,58.98
2018-01-08T15:49:08.697Z,59.39
2018-01-08T15:51:42.041Z,59.09
2018-01-08T15:54:13.283Z,58.75
2018-01-08T15:56:43.717Z,58.80
2018-01-08T15:59:16.283Z,59.01
2018-01-08T16:01:51.546Z,59.35
2018-01-08T16:04:23.059Z,59.87
2018-01-08T16:06:54.545Z,60.15
2018-01-08T16:09:25.980Z,60.37
2018-01-08T16:11:56.986Z,60.59
2018-01-08T16:14:27.884Z,60.70
2018-01-08T16:17:01.297Z,60.93
2018-01-08T16:19:32.385Z,61.24
2018-01-08T16:22:05.346Z,61.48
2018-01-08T16:24:37.080Z,61.56
2018-01-08T16:27:09.016Z,61.59
2018-01-08T16:29:41.129Z,61.37
2018-01-08T16:32:20.361Z,61.39
2018-01-08T16:34:59.803Z,61.14
2018-01-08T16:37:31.116Z,61.44
2018-01-08T16:40:02.128Z,61.51
2018-01-08T16:42:34.685Z,61.33
2018-01-08T16:45:12.703Z,61.46
2018-01-08T16:47:46.395Z,61.09
2018-01-08T16:50:18.714Z,61.16
2018-01-08T16:52:50.088Z,61.52
2018-01-08T16:55:22.744Z,61.42
2018-01-08T16:57:53.883Z,61.37
2018-01-08T17:00:26.020Z,61.49
2018-01-08T17:02:59.806Z,61.18
2018-01-08T17:05:31.106Z,61.28
2018-01-08T17:08:03.772Z,61.44
2018-01-08T17:10:36.542Z,60.93
2018-01-08T17:13:08.273Z,60.92
2018-01-08T17:15:40.297Z,60.58
2018-01-08T17:18:11.354Z,60.89
2018-01-08T17:20:42.903Z,60.97
2018-01-08T17:23:18.710Z,60.79
2018-01-08T17:25:52.157Z,61.22
2018-01-08T17:28:25.776Z,61.22
2018-01-08T17:30:59.393Z,60.85
2018-01-08T17:33:32.850Z,60.83
2018-01-08T17:36:05.864Z,61.16
2018-01-08T17:38:39.384Z,61.28
2018-01-08T17:41:12.312Z,61.37
2018-01-08T17:43:49.985Z,61.08
2018-01-08T17:46:31.430Z,61.24
2018-01-08T17:49:06.557Z,60.93
2018-01-08T17:51:39.740Z,61.33
2018-01-08T17:54:14.832Z,61.60
2018-01-08T17:56:48.646Z,61.60
2018-01-08T17:59:21.977Z,61.67
2018-01-08T18:01:56.636Z,61.90
2018-01-08T18:04:32.095Z,61.87
2018-01-08T18:07:06.272Z,61.63
2018-01-08T18:09:40.783Z,61.81
2018-01-08T18:12:16.557Z,62.09
2018-01-08T18:14:54.570Z,61.69
2018-01-08T18:17:31.955Z,62.05
2018-01-08T18:20:05.704Z,61.98
2018-01-08T18:22:40.134Z,61.84
2018-01-08T18:25:25.120Z,61.79
2018-01-08T18:27:59.478Z,62.16
2018-01-08T18:30:36.490Z,62.33
2018-01-08T18:33:10.625Z,62.05
2018-01-08T18:35:45.341Z,62.31
2018-01-08T18:38:20.055Z,62.73
2018-01-08T18:40:55.804Z,62.86
2018-01-08T18:43:29.745Z,63.42
2018-01-08T18:46:05.152Z,63.69
2018-01-08T18:48:40.030Z,63.89
2018-01-08T18:51:15.114Z,63.73
2018-01-08T18:53:49.803Z,64.03
2018-01-08T18:56:23.934Z,63.33
2018-01-08T18:59:00.632Z,63.21
2018-01-08T19:01:38.505Z,63.28
2018-01-08T19:04:14.503Z,63.37
2018-01-08T19:06:50.995Z,63.68
2018-01-08T19:09:27.245Z,63.98
2018-01-08T19:12:01.859Z,64.11
2018-01-08T19:14:36.664Z,64.38
2018-01-08T19:17:11.433Z,63.92
2018-01-08T19:19:46.259Z,63.97
2018-01-08T19:22:20.684Z,63.86
2018-01-08T19:24:55.074Z,63.77
2018-01-08T19:27:30.343Z,63.61
2018-01-08T19:30:08.197Z,63.63
2018-01-08T19:32:46.903Z,63.84
2018-01-08T19:35:21.996Z,63.71
2018-01-08T19:37:57.827Z,63.77
2018-01-08T19:40:33.529Z,63.84
2018-01-08T19:43:08.109Z,64.02
2018-01-08T19:45:46.475Z,64.17
2018-01-08T19:48:22.086Z,64.23
2018-01-08T19:50:56.820Z,64.25
2018-01-08T19:53:33.108Z,64.39
2018-01-08T19:56:08.138Z,64.04
2018-01-08T19:58:42.578Z,64.38
2018-01-08T20:01:19.408Z,64.14
2018-01-08T20:03:55.694Z,64.16
2018-01-08T20:06:33.677Z,63.89
2018-01-08T20:09:07.468Z,63.50
2018-01-08T20:11:42.227Z,63.74
2018-01-08T20:14:16.420Z,63.69
2018-01-08T20:16:48.512Z,63.84
2018-01-08T20:19:22.511Z,64.14
2018-01-08T20:21:57.258Z,64.43
2018-01-08T20:24:33.730Z,64.14
2018-01-08T20:27:10.919Z,63.97
2018-01-08T20:29:45.360Z,64.01
2018-01-08T20:32:20.125Z,64.30
2018-01-08T20:34:55.474Z,64.23
2018-01-08T20:37:33.983Z,64.11
2018-01-08T20:40:14.124Z,64.35
2018-01-08T20:42:49.161Z,64.18
2018-01-08T20:45:25.568Z,64.05
2018-01-08T20:47:59.850Z,64.32
2018-01-08T20:50:41.810Z,64.50
2018-01-08T20:53:16.711Z,64.43
2018-01-08T20:55:51.197Z,64.96
2018-01-08T20:58:26.186Z,65.54
2018-01-08T21:01:00.587Z,65.58
2018-01-08T21:03:37.447Z,65.47
2018-01-08T21:06:11.560Z,65.15
2018-01-08T21:08:45.345Z,64.57
2018-01-08T21:11:22.624Z,64.29
2018-01-08T21:13:56.724Z,64.06
2018-01-08T21:16:31.549Z,63.71
2018-01-08T21:19:04.633Z,63.52
2018-01-08T21:21:37.309Z,63.60
2018-01-08T21:24:11.007Z,63.54
2018-01-08T21:26:44.932Z,63.57
2018-01-08T21:29:18.595Z,63.58
2018-01-08T21:31:50.366Z,63.40
2018-01-08T21:34:22.240Z,63.34
2018-01-08T21:36:53.334Z,63.21
2018-01-08T21:39:29.718Z,63.50
2018-01-08T21:42:02.820Z,63.46
2018-01-08T21:44:34.502Z,63.49
2018-01-08T21:47:06.510Z,63.84
2018-01-08T21:49:41.910Z,63.88
2018-01-08T21:52:14.942Z,64.21
2018-01-08T21:54:49.063Z,64.82
2018-01-08T21:57:20.832Z,65.24
2018-01-08T21:59:54.055Z,65.23
2018-01-08T22:02:27.686Z,65.38
2018-01-08T22:05:03.139Z,65.44
2018-01-08T22:07:38.545Z,65.73
2018-01-08T22:10:10.508Z,65.53
2018-01-08T22:12:59.896Z,65.24
2018-01-08T22:15:32.461Z,64.96
2018-01-08T22:18:04.439Z,65.13
2018-01-08T22:20:37.552Z,65.39
2018-01-08T22:23:08.930Z,65.84
2018-01-08T22:25:40.622Z,65.88
2018-01-08T22:28:12.269Z,65.26
2018-01-08T22:30:45.125Z,64.98
2018-01-08T22:33:17.837Z,64.79
2018-01-08T22:35:50.887Z,64.97
2018-01-08T22:38:22.575Z,64.66
2018-01-08T22:40:53.547Z,64.85
2018-01-08T22:43:24.778Z,64.80
2018-01-08T22:45:56.842Z,64.71
2018-01-08T22:48:27.875Z,64.54
2018-01-08T22:50:59.312Z,64.46
2018-01-08T22:53:31.249Z,64.73
2018-01-08T22:56:02.194Z,64.49
2018-01-08T22:58:32.821Z,64.34
2018-01-08T23:01:04.882Z,63.97
2018-01-08T23:03:36.169Z,63.79
2018-01-08T23:06:06.868Z,63.82
2018-01-08T23:08:37.977Z,64.25
2018-01-08T23:11:08.509Z,63.98
2018-01-08T23:13:39.641Z,63.70
2018-01-08T23:16:10.775Z,63.56
2018-01-08T23:18:41.527Z,63.79
2018-01-08T23:21:12.966Z,63.77
2018-01-08T23:23:43.799Z,63.53
2018-01-08T23:26:14.131Z,63.66
2018-01-08T23:28:45.252Z,63.65
2018-01-08T23:31:16.000Z,63.34
2018-01-08T23:33:46.685Z,63.31
2018-01-08T23:36:17.472Z,63.14
2018-01-08T23:38:49.223Z,63.48
2018-01-08T23:41:19.776Z,63.35
2018-01-08T23:43:50.770Z,63.23
2018-01-08T23:46:21.322Z,63.33
2018-01-08T23:48:52.457Z,63.90
2018-01-08T23:51:23.003Z,64.19
2018-01-08T23:53:53.409Z,64.08
2018-01-08T23:56:25.640Z,64.07
2018-01-08T23:58:56.128Z,63.94
